createdAt,value
2017-05-07T04:00:41.959Z,18.95
2017-05-07T04:01:07.510Z,19.02
2017-05-07T04:01:33.259Z,19.06
2017-05-07T04:01:58.836Z,19.01
2017-05-07T04:02:24.417Z,19.02
2017-05-07T04:02:49.964Z,19.06
2017-05-07T04:03:15.501Z,19.05
2017-05-07T04:03:41.049Z,19.01
2017-05-07T04:04:06.735Z,18.98
2017-05-07T04:04:32.277Z,19.01
2017-05-07T04:04:57.820Z,19.02
2017-05-07T04:05:23.684Z,18.95
2017-05-07T04:05:49.241Z,19.02
2017-05-07T04:06:14.786Z,18.99
2017-05-07T04:06:40.344Z,19.06
2017-05-07T04:07:05.919Z,18.99
2017-05-07T04:07:31.481Z,19.01
2017-05-07T04:07:57.082Z,19.06
2017-05-07T04:08:22.756Z,19.02
2017-05-07T04:08:48.312Z,19.01
2017-05-07T04:09:13.874Z,19.08
2017-05-07T04:09:39.443Z,19.06
2017-05-07T04:10:05.013Z,18.92
2017-05-07T04:10:30.583Z,19.01
2017-05-07T04:10:56.163Z,19.06
2017-05-07T04:11:21.715Z,19.05
2017-05-07T04:11:47.328Z,19.08
2017-05-07T04:12:12.883Z,19.06
2017-05-07T04:12:38.434Z,19.01
2017-05-07T04:13:03.996Z,19.01
2017-05-07T04:13:29.593Z,19.01
2017-05-07T04:13:55.163Z,19.01
2017-05-07T04:14:20.733Z,18.95
2017-05-07T04:14:46.298Z,19.05
2017-05-07T04:15:11.860Z,18.99
2017-05-07T04:15:37.565Z,18.95
2017-05-07T04:16:03.133Z,18.99
2017-05-07T04:16:28.700Z,18.97
2017-05-07T04:16:54.977Z,18.97
2017-05-07T04:17:20.549Z,18.99
2017-05-07T04:17:46.101Z,19.05
2017-05-07T04:18:11.688Z,19.05
2017-05-07T04:18:37.254Z,19.06
2017-05-07T04:19:02.803Z,18.92
2017-05-07T04:19:28.359Z,19.05
2017-05-07T04:19:53.965Z,18.99
2017-05-07T04:20:19.530Z,19.02
2017-05-07T04:20:45.153Z,18.98
2017-05-07T04:21:10.726Z,19.01
2017-05-07T04:21:36.280Z,18.97
2017-05-07T04:22:01.836Z,19.1
2017-05-07T04:22:27.602Z,18.9
2017-05-07T04:22:53.167Z,18.97
2017-05-07T04:23:18.727Z,19.01
2017-05-07T04:23:44.359Z,19.05
2017-05-07T04:24:09.931Z,18.98
2017-05-07T04:24:35.536Z,18.99
2017-05-07T04:25:01.080Z,18.95
2017-05-07T04:25:26.659Z,19.02
2017-05-07T04:25:52.217Z,18.95
2017-05-07T04:26:17.797Z,18.99
2017-05-07T04:26:43.394Z,19.02
2017-05-07T04:27:08.960Z,19.01
2017-05-07T04:27:34.534Z,19.05
2017-05-07T04:28:00.094Z,18.98
2017-05-07T04:28:25.644Z,18.97
2017-05-07T04:28:51.207Z,19.01
2017-05-07T04:29:16.760Z,18.98
2017-05-07T04:29:42.385Z,19.01
2017-05-07T04:30:07.932Z,19.01
2017-05-07T04:30:33.489Z,18.95
2017-05-07T04:30:59.063Z,18.99
2017-05-07T04:31:24.609Z,18.99
2017-05-07T04:31:50.173Z,18.91
2017-05-07T04:32:15.745Z,18.97
2017-05-07T04:32:41.306Z,18.94
2017-05-07T04:33:06.873Z,19.02
2017-05-07T04:33:32.512Z,18.92
2017-05-07T04:33:58.082Z,19.05
2017-05-07T04:34:23.641Z,19.02
2017-05-07T04:34:49.213Z,18.97
2017-05-07T04:35:14.782Z,18.94
2017-05-07T04:35:40.338Z,18.92
2017-05-07T04:36:05.910Z,18.98
2017-05-07T04:36:31.638Z,18.95
2017-05-07T04:36:57.208Z,18.99
2017-05-07T04:37:22.790Z,18.92
2017-05-07T04:37:48.344Z,18.97
2017-05-07T04:38:13.900Z,19.01
2017-05-07T04:38:39.452Z,18.99
2017-05-07T04:39:05.082Z,18.97
2017-05-07T04:39:30.642Z,18.9
2017-05-07T04:39:56.207Z,18.99
2017-05-07T04:40:21.804Z,19.02
2017-05-07T04:40:47.394Z,19.05
2017-05-07T04:41:12.948Z,18.98
2017-05-07T04:41:38.515Z,18.97
2017-05-07T04:42:04.076Z,18.98
2017-05-07T04:42:29.614Z,18.94
2017-05-07T04:42:55.209Z,18.95
2017-05-07T04:43:20.775Z,19.02
2017-05-07T04:43:46.343Z,19.01
2017-05-07T04:44:11.899Z,18.97
2017-05-07T04:44:37.453Z,18.94
2017-05-07T04:45:03.024Z,18.95
2017-05-07T04:45:28.603Z,19.02
2017-05-07T04:45:54.161Z,18.94
2017-05-07T04:46:19.837Z,18.98
2017-05-07T04:46:45.413Z,18.92
2017-05-07T04:47:10.974Z,18.98
2017-05-07T04:47:36.531Z,18.98
2017-05-07T04:48:02.099Z,18.99
2017-05-07T04:48:27.726Z,18.95
2017-05-07T04:48:53.292Z,18.98
2017-05-07T04:49:18.853Z,18.97
2017-05-07T04:49:44.408Z,18.97
2017-05-07T04:50:10.035Z,19.01
2017-05-07T04:50:35.623Z,19.01
2017-05-07T04:51:01.193Z,18.95
2017-05-07T04:51:26.837Z,18.94
2017-05-07T04:51:52.418Z,19.01
2017-05-07T04:52:17.971Z,18.95
2017-05-07T04:52:43.621Z,18.99
2017-05-07T04:53:09.190Z,18.98
2017-05-07T04:53:34.737Z,18.97
2017-05-07T04:54:00.301Z,18.99
2017-05-07T04:54:25.872Z,18.99
2017-05-07T04:54:51.410Z,18.99
2017-05-07T04:55:16.999Z,18.98
2017-05-07T04:55:42.545Z,19.01
2017-05-07T04:56:08.122Z,18.98
2017-05-07T04:56:33.686Z,18.99
2017-05-07T04:56:59.241Z,18.95
2017-05-07T04:57:24.799Z,18.92
2017-05-07T04:57:50.356Z,18.97
2017-05-07T04:58:15.937Z,19.02
2017-05-07T04:58:41.459Z,18.95
2017-05-07T04:59:07.024Z,18.98
2017-05-07T04:59:32.563Z,18.98
2017-05-07T04:59:58.111Z,18.98
2017-05-07T05:00:23.649Z,18.99
2017-05-07T05:00:49.223Z,18.98
2017-05-07T05:01:14.958Z,18.99
2017-05-07T05:01:40.556Z,18.98
2017-05-07T05:02:06.124Z,18.87
2017-05-07T05:02:31.677Z,18.99
2017-05-07T05:02:57.313Z,19.01
2017-05-07T05:03:22.939Z,19.02
2017-05-07T05:03:48.525Z,18.92
2017-05-07T05:04:14.256Z,18.97
2017-05-07T05:04:39.884Z,18.98
2017-05-07T05:05:05.440Z,19.01
2017-05-07T05:05:31.004Z,19.01
2017-05-07T05:05:56.569Z,18.92
2017-05-07T05:06:22.169Z,18.99
2017-05-07T05:06:47.804Z,18.95
2017-05-07T05:07:13.361Z,18.9
2017-05-07T05:07:38.920Z,18.9
2017-05-07T05:08:04.584Z,18.99
2017-05-07T05:08:30.152Z,18.9
2017-05-07T05:08:55.712Z,18.99
2017-05-07T05:09:21.284Z,18.99
2017-05-07T05:09:46.991Z,18.97
2017-05-07T05:10:12.551Z,18.95
2017-05-07T05:10:38.123Z,19.01
2017-05-07T05:11:03.711Z,18.94
2017-05-07T05:11:29.282Z,18.98
2017-05-07T05:11:54.912Z,18.98
2017-05-07T05:12:20.500Z,19.02
2017-05-07T05:12:46.165Z,18.94
2017-05-07T05:13:11.861Z,18.95
2017-05-07T05:13:37.411Z,18.97
2017-05-07T05:14:02.993Z,18.94
2017-05-07T05:14:28.551Z,18.91
2017-05-07T05:14:54.132Z,18.98
2017-05-07T05:15:19.815Z,18.92
2017-05-07T05:15:45.371Z,18.97
2017-05-07T05:16:10.944Z,18.95
2017-05-07T05:16:36.597Z,18.97
2017-05-07T05:17:02.171Z,18.98
2017-05-07T05:17:27.735Z,18.9
2017-05-07T05:17:53.297Z,18.92
2017-05-07T05:18:18.876Z,18.94
2017-05-07T05:18:44.455Z,18.94
2017-05-07T05:19:10.023Z,18.97
2017-05-07T05:19:35.585Z,18.91
2017-05-07T05:20:01.235Z,18.9
2017-05-07T05:20:26.810Z,18.99
2017-05-07T05:20:52.372Z,18.98
2017-05-07T05:21:17.942Z,18.92
2017-05-07T05:22:21.525Z,18.91
2017-05-07T05:22:47.158Z,18.94
2017-05-07T05:23:12.686Z,18.94
2017-05-07T05:23:38.859Z,18.99
2017-05-07T05:24:03.833Z,18.99
2017-05-07T05:24:29.403Z,18.99
2017-05-07T05:24:55.863Z,18.95
2017-05-07T05:25:20.568Z,18.92
2017-05-07T05:25:46.204Z,18.95
2017-05-07T05:26:11.749Z,18.91
2017-05-07T05:26:37.329Z,18.97
2017-05-07T05:27:02.893Z,18.98
2017-05-07T05:27:28.549Z,18.95
2017-05-07T05:27:54.114Z,18.98
2017-05-07T05:28:19.680Z,18.9
2017-05-07T05:28:45.252Z,18.95
2017-05-07T05:29:10.837Z,18.98
2017-05-07T05:29:36.394Z,19.01
2017-05-07T05:30:01.949Z,18.94
2017-05-07T05:30:27.505Z,18.95
2017-05-07T05:30:53.062Z,18.97
2017-05-07T05:31:18.623Z,18.99
2017-05-07T05:31:44.188Z,18.98
2017-05-07T05:32:09.753Z,18.95
2017-05-07T05:32:35.297Z,18.97
2017-05-07T05:33:00.864Z,18.97
2017-05-07T05:33:26.437Z,18.92
2017-05-07T05:33:52.032Z,18.92
2017-05-07T05:34:17.594Z,18.92
2017-05-07T05:34:43.169Z,18.95
2017-05-07T05:35:08.720Z,18.94
2017-05-07T05:35:34.291Z,18.84
2017-05-07T05:36:00.240Z,18.9
2017-05-07T05:36:25.813Z,18.98
2017-05-07T05:36:51.377Z,18.98
2017-05-07T05:37:16.930Z,18.97
2017-05-07T05:37:42.501Z,18.91
2017-05-07T05:38:08.088Z,18.9
2017-05-07T05:38:33.644Z,18.92
2017-05-07T05:38:59.254Z,18.91
2017-05-07T05:39:24.911Z,18.92
2017-05-07T05:39:50.474Z,18.92
2017-05-07T05:40:16.035Z,18.91
2017-05-07T05:40:41.602Z,18.97
2017-05-07T05:41:07.160Z,18.9
2017-05-07T05:41:32.744Z,18.95
2017-05-07T05:41:58.302Z,18.95
2017-05-07T05:42:23.865Z,18.94
2017-05-07T05:42:49.423Z,18.92
2017-05-07T05:43:14.992Z,18.95
2017-05-07T05:43:40.554Z,18.94
2017-05-07T05:44:06.123Z,18.92
2017-05-07T05:44:31.703Z,18.9
2017-05-07T05:44:57.272Z,18.87
2017-05-07T05:45:22.830Z,18.92
2017-05-07T05:45:48.416Z,18.91
2017-05-07T05:46:13.976Z,18.84
2017-05-07T05:46:39.643Z,18.95
2017-05-07T05:47:05.233Z,18.94
2017-05-07T05:47:30.793Z,18.91
2017-05-07T05:47:56.363Z,18.94
2017-05-07T05:48:22.084Z,18.95
2017-05-07T05:48:47.653Z,18.92
2017-05-07T05:49:13.244Z,18.91
2017-05-07T05:49:38.822Z,18.91
2017-05-07T05:50:04.383Z,18.94
2017-05-07T05:50:29.960Z,18.91
2017-05-07T05:50:55.547Z,18.91
2017-05-07T05:51:21.106Z,18.94
2017-05-07T05:51:46.660Z,18.95
2017-05-07T05:52:12.276Z,18.95
2017-05-07T05:52:37.846Z,18.91
2017-05-07T05:53:03.408Z,18.97
2017-05-07T05:53:29.072Z,18.94
2017-05-07T05:53:54.645Z,18.97
2017-05-07T05:54:20.198Z,18.97
2017-05-07T05:54:45.783Z,18.91
2017-05-07T05:55:11.914Z,18.94
2017-05-07T05:55:37.484Z,18.92
2017-05-07T05:56:03.149Z,18.98
2017-05-07T05:56:28.711Z,18.87
2017-05-07T05:56:54.298Z,18.94
2017-05-07T05:57:19.887Z,18.98
2017-05-07T05:57:45.454Z,18.92
2017-05-07T05:58:11.024Z,18.94
2017-05-07T05:58:36.593Z,18.92
2017-05-07T05:59:02.161Z,18.94
2017-05-07T05:59:27.772Z,18.94
2017-05-07T05:59:53.331Z,18.9
2017-05-07T06:00:18.899Z,18.91
2017-05-07T06:01:17.385Z,18.86
2017-05-07T06:01:43.030Z,18.92
2017-05-07T06:02:08.631Z,18.95
2017-05-07T06:02:34.198Z,18.92
2017-05-07T06:02:59.762Z,18.94
2017-05-07T06:03:25.364Z,18.97
2017-05-07T06:03:50.921Z,18.94
2017-05-07T06:04:16.610Z,18.86
2017-05-07T06:04:42.225Z,18.91
2017-05-07T06:05:40.324Z,18.92
2017-05-07T06:06:05.864Z,18.84
2017-05-07T06:08:13.419Z,18.9
2017-05-07T06:08:39.015Z,18.9
2017-05-07T06:09:04.562Z,18.83
2017-05-07T06:09:30.128Z,18.87
2017-05-07T06:09:55.840Z,18.83
2017-05-07T06:10:21.397Z,18.83
2017-05-07T06:10:46.970Z,18.9
2017-05-07T06:11:12.628Z,18.84
2017-05-07T06:11:38.218Z,18.87
2017-05-07T06:12:03.871Z,18.84
2017-05-07T06:12:29.443Z,18.9
2017-05-07T06:13:27.922Z,18.87
2017-05-07T06:13:53.546Z,18.84
2017-05-07T06:14:19.091Z,18.92
2017-05-07T06:14:44.674Z,18.83
2017-05-07T06:15:10.361Z,18.91
2017-05-07T06:15:35.919Z,18.87
2017-05-07T06:16:01.479Z,18.83
2017-05-07T06:16:27.043Z,18.84
2017-05-07T06:16:52.588Z,18.87
2017-05-07T06:17:18.135Z,18.86
2017-05-07T06:17:43.671Z,18.82
2017-05-07T06:18:09.234Z,18.97
2017-05-07T06:18:34.799Z,18.87
2017-05-07T06:19:00.366Z,18.82
2017-05-07T06:19:25.942Z,18.82
2017-05-07T06:19:51.506Z,18.86
2017-05-07T06:20:17.067Z,18.84
2017-05-07T06:20:42.682Z,18.82
2017-05-07T06:21:08.311Z,18.84
2017-05-07T06:21:34.396Z,18.84
2017-05-07T06:21:59.964Z,18.84
2017-05-07T06:22:25.572Z,18.84
2017-05-07T06:22:51.135Z,18.86
2017-05-07T06:23:16.780Z,18.82
2017-05-07T06:23:42.356Z,18.83
2017-05-07T06:24:07.918Z,18.82
2017-05-07T06:24:33.610Z,18.82
2017-05-07T06:24:59.180Z,18.84
2017-05-07T06:25:24.766Z,18.84
2017-05-07T06:25:50.277Z,18.82
2017-05-07T06:26:15.959Z,18.84
2017-05-07T06:26:41.513Z,18.84
2017-05-07T06:27:07.285Z,18.84
2017-05-07T06:27:32.830Z,18.83
2017-05-07T06:27:58.384Z,18.83
2017-05-07T06:28:23.982Z,18.82
2017-05-07T06:28:49.554Z,18.82
2017-05-07T06:29:15.120Z,18.82
2017-05-07T06:29:40.659Z,18.86
2017-05-07T06:30:06.191Z,18.84
2017-05-07T06:30:31.751Z,18.79
2017-05-07T06:31:19.923Z,18.82
2017-05-07T06:31:45.522Z,18.84
2017-05-07T06:33:52.513Z,18.87
2017-05-07T06:34:18.069Z,18.86
2017-05-07T06:34:43.611Z,18.79
2017-05-07T06:35:09.151Z,18.83
2017-05-07T06:35:34.699Z,18.82
2017-05-07T06:36:00.302Z,18.83
2017-05-07T06:36:25.870Z,18.84
2017-05-07T06:36:51.463Z,18.87
2017-05-07T06:37:17.030Z,18.82
2017-05-07T06:38:25.614Z,18.79
2017-05-07T06:40:32.812Z,18.79
2017-05-07T06:40:58.414Z,18.82
2017-05-07T06:41:24.009Z,18.91
2017-05-07T06:41:49.569Z,18.83
2017-05-07T06:42:15.115Z,18.82
2017-05-07T06:42:40.850Z,18.8
2017-05-07T06:43:06.430Z,18.84
2017-05-07T06:43:32.002Z,18.84
2017-05-07T06:43:57.565Z,18.82
2017-05-07T06:44:23.143Z,18.84
2017-05-07T06:44:48.703Z,18.9
2017-05-07T06:45:14.285Z,18.84
2017-05-07T06:45:39.857Z,18.84
2017-05-07T06:46:05.434Z,18.84
2017-05-07T06:46:31.019Z,18.83
2017-05-07T06:46:56.576Z,18.83
2017-05-07T06:47:22.131Z,18.84
2017-05-07T06:47:47.681Z,18.87
2017-05-07T06:48:13.259Z,18.82
2017-05-07T06:48:38.832Z,18.86
2017-05-07T06:49:04.404Z,18.95
2017-05-07T06:49:29.973Z,18.87
2017-05-07T06:49:55.534Z,18.82
2017-05-07T06:50:21.110Z,18.83
2017-05-07T06:50:46.679Z,18.82
2017-05-07T06:51:12.259Z,18.84
2017-05-07T06:51:37.924Z,18.84
2017-05-07T06:52:03.472Z,18.83
2017-05-07T06:52:29.079Z,18.86
2017-05-07T06:52:54.653Z,18.83
2017-05-07T06:53:20.225Z,18.84
2017-05-07T06:53:45.776Z,18.84
2017-05-07T06:54:11.355Z,18.8
2017-05-07T06:54:36.929Z,18.84
2017-05-07T06:55:02.675Z,18.84
2017-05-07T06:55:28.220Z,18.82
2017-05-07T06:55:53.773Z,18.84
2017-05-07T06:56:19.332Z,18.83
2017-05-07T06:56:44.934Z,18.84
2017-05-07T06:57:10.551Z,18.83
2017-05-07T06:57:36.093Z,18.83
2017-05-07T06:58:01.652Z,18.82
2017-05-07T06:58:27.219Z,18.83
2017-05-07T06:58:52.837Z,18.83
2017-05-07T06:59:18.550Z,18.84
2017-05-07T06:59:44.212Z,18.82
2017-05-07T07:00:09.760Z,18.86
2017-05-07T07:00:35.325Z,18.84
2017-05-07T07:01:00.883Z,18.8
2017-05-07T07:01:26.473Z,18.82
2017-05-07T07:01:52.054Z,18.83
2017-05-07T07:02:17.923Z,18.83
2017-05-07T07:02:43.505Z,18.9
2017-05-07T07:03:09.107Z,18.84
2017-05-07T07:03:34.673Z,18.84
2017-05-07T07:04:00.244Z,18.86
2017-05-07T07:04:25.822Z,18.84
2017-05-07T07:04:51.389Z,18.83
2017-05-07T07:05:17.007Z,18.83
2017-05-07T07:05:42.540Z,18.84
2017-05-07T07:06:08.113Z,18.86
2017-05-07T07:06:33.689Z,18.86
2017-05-07T07:06:59.252Z,18.86
2017-05-07T07:07:24.800Z,18.86
2017-05-07T07:07:50.373Z,18.84
2017-05-07T07:08:15.955Z,18.91
2017-05-07T07:08:41.576Z,18.9
2017-05-07T07:09:07.152Z,18.87
2017-05-07T07:09:32.743Z,18.87
2017-05-07T07:09:58.291Z,18.91
2017-05-07T07:10:23.921Z,18.84
2017-05-07T07:10:49.502Z,18.91
2017-05-07T07:11:15.073Z,18.87
2017-05-07T07:11:40.638Z,18.97
2017-05-07T07:12:06.281Z,18.9
2017-05-07T07:12:31.963Z,18.87
2017-05-07T07:12:57.510Z,18.9
2017-05-07T07:13:23.180Z,18.87
2017-05-07T07:13:48.748Z,18.83
2017-05-07T07:14:14.294Z,18.9
2017-05-07T07:14:39.863Z,18.87
2017-05-07T07:15:05.435Z,18.86
2017-05-07T07:15:31.032Z,18.91
2017-05-07T07:15:56.608Z,18.94
2017-05-07T07:16:22.209Z,18.9
2017-05-07T07:16:47.765Z,18.92
2017-05-07T07:17:13.332Z,18.86
2017-05-07T07:17:38.906Z,18.84
2017-05-07T07:18:04.461Z,18.86
2017-05-07T07:18:30.104Z,18.84
2017-05-07T07:18:55.671Z,18.8
2017-05-07T07:19:21.236Z,18.87
2017-05-07T07:19:46.815Z,18.86
2017-05-07T07:20:12.376Z,18.83
2017-05-07T07:20:37.921Z,18.87
2017-05-07T07:21:03.489Z,18.87
2017-05-07T07:21:29.064Z,18.87
2017-05-07T07:21:54.631Z,18.92
2017-05-07T07:22:20.190Z,18.84
2017-05-07T07:22:45.739Z,18.87
2017-05-07T07:23:11.305Z,18.83
2017-05-07T07:23:36.906Z,18.92
2017-05-07T07:24:02.493Z,18.94
2017-05-07T07:24:28.080Z,18.83
2017-05-07T07:24:53.655Z,18.87
2017-05-07T07:25:19.231Z,18.9
2017-05-07T07:25:44.812Z,18.91
2017-05-07T07:26:10.373Z,18.84
2017-05-07T07:26:35.941Z,18.86
2017-05-07T07:27:01.514Z,18.86
2017-05-07T07:27:27.278Z,18.92
2017-05-07T07:27:52.931Z,18.86
2017-05-07T07:28:18.480Z,18.87
2017-05-07T07:28:44.060Z,18.87
2017-05-07T07:29:09.630Z,18.84
2017-05-07T07:29:35.199Z,18.9
2017-05-07T07:30:00.779Z,18.84
2017-05-07T07:30:26.500Z,18.84
2017-05-07T07:30:52.062Z,18.91
2017-05-07T07:31:17.636Z,18.9
2017-05-07T07:31:43.203Z,18.9
2017-05-07T07:32:08.760Z,18.83
2017-05-07T07:32:34.345Z,18.87
2017-05-07T07:32:59.942Z,18.9
2017-05-07T07:33:25.504Z,18.83
2017-05-07T07:33:51.096Z,18.83
2017-05-07T07:34:16.659Z,18.86
2017-05-07T07:34:42.211Z,18.87
2017-05-07T07:35:07.835Z,18.9
2017-05-07T07:35:33.459Z,18.9
2017-05-07T07:35:59.112Z,18.91
2017-05-07T07:36:24.689Z,18.86
2017-05-07T07:36:50.312Z,18.84
2017-05-07T07:37:15.858Z,18.87
2017-05-07T07:37:41.440Z,18.92
2017-05-07T07:38:07.080Z,18.9
2017-05-07T07:38:32.632Z,18.86
2017-05-07T07:38:58.201Z,18.84
2017-05-07T07:39:23.780Z,18.92
2017-05-07T07:39:49.319Z,18.9
2017-05-07T07:40:14.879Z,18.87
2017-05-07T07:40:40.420Z,18.9
2017-05-07T07:41:05.967Z,18.87
2017-05-07T07:41:31.524Z,18.9
2017-05-07T07:41:57.053Z,18.87
2017-05-07T07:42:22.622Z,18.87
2017-05-07T07:42:48.188Z,18.9
2017-05-07T07:43:13.762Z,18.83
2017-05-07T07:43:39.328Z,18.86
2017-05-07T07:44:05.005Z,18.87
2017-05-07T07:44:30.552Z,18.91
2017-05-07T07:44:56.088Z,18.94
2017-05-07T07:45:21.695Z,18.87
2017-05-07T07:45:47.290Z,18.91
2017-05-07T07:46:12.830Z,18.9
2017-05-07T07:46:38.388Z,18.91
2017-05-07T07:47:03.975Z,18.91
2017-05-07T07:47:29.533Z,18.84
2017-05-07T07:47:55.106Z,18.87
2017-05-07T07:48:21.574Z,18.86
2017-05-07T07:48:47.107Z,18.9
2017-05-07T07:49:12.707Z,18.87
2017-05-07T07:49:38.335Z,18.91
2017-05-07T07:50:03.891Z,18.92
2017-05-07T07:50:29.470Z,18.83
2017-05-07T07:50:55.118Z,18.87
2017-05-07T07:51:20.720Z,18.91
2017-05-07T07:51:46.290Z,18.91
2017-05-07T07:52:11.943Z,18.91
2017-05-07T07:52:37.502Z,18.87
2017-05-07T07:53:03.089Z,18.87
2017-05-07T07:53:28.745Z,18.84
2017-05-07T07:53:54.331Z,18.87
2017-05-07T07:54:19.892Z,18.91
2017-05-07T07:54:45.466Z,18.9
2017-05-07T07:55:11.043Z,18.91
2017-05-07T07:55:36.669Z,18.92
2017-05-07T07:56:02.292Z,18.92
2017-05-07T07:56:27.882Z,18.9
2017-05-07T07:56:54.234Z,18.92
2017-05-07T07:57:19.830Z,18.9
2017-05-07T07:57:45.410Z,18.9
2017-05-07T07:58:10.978Z,18.87
2017-05-07T07:58:36.556Z,18.87
2017-05-07T07:59:02.122Z,18.94
2017-05-07T07:59:27.895Z,18.9
2017-05-07T07:59:53.536Z,18.84
2017-05-07T08:00:19.078Z,18.9
2017-05-07T08:00:44.630Z,18.84
2017-05-07T08:01:10.184Z,18.9
2017-05-07T08:01:35.744Z,18.9
2017-05-07T08:02:01.311Z,18.92
2017-05-07T08:02:26.875Z,18.87
2017-05-07T08:02:52.433Z,18.83
2017-05-07T08:03:18.022Z,18.87
2017-05-07T08:03:43.672Z,18.91
2017-05-07T08:04:09.250Z,18.86
2017-05-07T08:04:34.803Z,18.91
2017-05-07T08:05:00.359Z,18.9
2017-05-07T08:05:25.912Z,18.87
2017-05-07T08:05:51.471Z,18.86
2017-05-07T08:06:17.054Z,18.87
2017-05-07T08:06:42.650Z,18.91
2017-05-07T08:07:08.272Z,18.87
2017-05-07T08:07:33.831Z,18.91
2017-05-07T08:07:59.403Z,18.92
2017-05-07T08:08:25.018Z,18.91
2017-05-07T08:08:50.620Z,18.84
2017-05-07T08:09:16.238Z,18.9
2017-05-07T08:10:09.586Z,18.94
2017-05-07T08:10:35.264Z,18.87
2017-05-07T08:11:00.846Z,18.84
2017-05-07T08:11:26.442Z,18.92
2017-05-07T08:11:52.085Z,18.84
2017-05-07T08:12:17.643Z,18.87
2017-05-07T08:12:43.205Z,18.91
2017-05-07T08:13:08.810Z,18.84
2017-05-07T08:13:34.380Z,18.95
2017-05-07T08:14:00.449Z,18.92
2017-05-07T08:14:25.483Z,18.95
2017-05-07T08:14:51.844Z,18.95
2017-05-07T08:15:17.398Z,18.94
2017-05-07T08:15:42.961Z,18.92
2017-05-07T08:16:08.562Z,18.91
2017-05-07T08:16:34.135Z,18.92
2017-05-07T08:16:59.911Z,18.95
2017-05-07T08:17:25.472Z,18.92
2017-05-07T08:17:51.193Z,18.97
2017-05-07T08:18:16.779Z,18.97
2017-05-07T08:18:42.333Z,18.87
2017-05-07T08:19:08.035Z,18.99
2017-05-07T08:19:33.594Z,18.97
2017-05-07T08:19:59.152Z,18.98
2017-05-07T08:20:24.836Z,18.99
2017-05-07T08:20:50.374Z,19.01
2017-05-07T08:21:16.071Z,18.97
2017-05-07T08:21:41.635Z,18.92
2017-05-07T08:22:07.245Z,18.99
2017-05-07T08:22:32.798Z,18.98
2017-05-07T08:22:58.362Z,19.01
2017-05-07T08:23:24.072Z,18.95
2017-05-07T08:23:49.873Z,18.99
2017-05-07T08:24:15.414Z,18.97
2017-05-07T08:24:40.972Z,19.01
2017-05-07T08:25:06.574Z,18.98
2017-05-07T08:25:32.168Z,18.95
2017-05-07T08:25:57.720Z,18.92
2017-05-07T08:26:23.274Z,19.01
2017-05-07T08:26:48.854Z,18.99
2017-05-07T08:27:14.407Z,18.97
2017-05-07T08:27:40.015Z,18.99
2017-05-07T08:28:05.574Z,18.94
2017-05-07T08:28:31.135Z,18.98
2017-05-07T08:28:56.848Z,18.98
2017-05-07T08:29:22.425Z,18.95
2017-05-07T08:29:47.994Z,18.99
2017-05-07T08:30:13.548Z,18.98
2017-05-07T08:30:39.121Z,18.98
2017-05-07T08:31:04.695Z,18.98
2017-05-07T08:31:30.254Z,18.99
2017-05-07T08:31:55.811Z,18.99
2017-05-07T08:32:21.398Z,18.98
2017-05-07T08:32:46.949Z,18.97
2017-05-07T08:33:12.523Z,18.98
2017-05-07T08:33:38.095Z,18.84
2017-05-07T08:34:03.654Z,18.91
2017-05-07T08:34:29.245Z,18.94
2017-05-07T08:34:54.853Z,18.95
2017-05-07T08:35:20.425Z,18.92
2017-05-07T08:35:45.973Z,18.92
2017-05-07T08:36:11.667Z,18.91
2017-05-07T08:36:37.276Z,18.97
2017-05-07T08:37:02.844Z,18.92
2017-05-07T08:37:28.422Z,18.91
2017-05-07T08:37:54.018Z,18.87
2017-05-07T08:38:19.577Z,18.94
2017-05-07T08:38:45.126Z,18.84
2017-05-07T08:39:10.831Z,18.95
2017-05-07T08:39:36.462Z,18.91
2017-05-07T08:40:02.026Z,18.97
2017-05-07T08:40:27.587Z,18.95
2017-05-07T08:40:53.241Z,18.92
2017-05-07T08:41:18.791Z,18.97
2017-05-07T08:42:27.294Z,18.87
2017-05-07T08:42:52.864Z,18.95
2017-05-07T08:43:18.429Z,18.91
2017-05-07T08:43:44.150Z,18.91
2017-05-07T08:44:09.709Z,18.94
2017-05-07T08:44:35.252Z,18.97
2017-05-07T08:45:00.992Z,18.99
2017-05-07T08:45:26.537Z,18.95
2017-05-07T08:45:52.094Z,18.97
2017-05-07T08:46:17.662Z,18.92
2017-05-07T08:46:43.230Z,18.91
2017-05-07T08:47:08.848Z,18.97
2017-05-07T08:47:34.435Z,18.98
2017-05-07T08:48:00.036Z,18.98
2017-05-07T08:48:25.684Z,19.01
2017-05-07T08:48:51.262Z,18.92
2017-05-07T08:49:16.980Z,19.02
2017-05-07T08:49:42.614Z,18.92
2017-05-07T08:50:08.236Z,18.98
2017-05-07T08:50:33.833Z,18.98
2017-05-07T08:52:25.554Z,18.98
2017-05-07T08:52:51.122Z,18.99
2017-05-07T08:53:16.659Z,18.95
2017-05-07T08:53:42.222Z,19.02
2017-05-07T08:54:07.847Z,18.98
2017-05-07T08:54:33.461Z,18.94
2017-05-07T08:54:59.018Z,19.02
2017-05-07T08:55:24.761Z,18.94
2017-05-07T08:55:50.376Z,18.99
2017-05-07T08:56:16.035Z,18.92
2017-05-07T08:56:41.590Z,18.95
2017-05-07T08:57:07.152Z,18.95
2017-05-07T08:57:32.727Z,19.01
2017-05-07T08:57:58.302Z,18.97
2017-05-07T08:58:23.925Z,19.01
2017-05-07T08:58:49.693Z,18.94
2017-05-07T08:59:15.534Z,18.94
2017-05-07T08:59:41.160Z,18.97
2017-05-07T09:00:06.700Z,18.97
2017-05-07T09:00:32.284Z,18.92
2017-05-07T09:00:57.945Z,18.99
2017-05-07T09:01:23.514Z,19.02
2017-05-07T09:01:49.074Z,19.01
2017-05-07T09:02:14.783Z,18.98
2017-05-07T09:02:40.374Z,18.98
2017-05-07T09:03:05.928Z,18.98
2017-05-07T09:03:31.521Z,18.92
2017-05-07T09:03:57.185Z,19.02
2017-05-07T09:04:22.752Z,18.97
2017-05-07T09:04:48.301Z,19.05
2017-05-07T09:05:13.873Z,18.97
2017-05-07T09:05:39.489Z,18.97
2017-05-07T09:06:05.162Z,18.98
2017-05-07T09:06:30.764Z,18.99
2017-05-07T09:06:56.410Z,18.95
2017-05-07T09:07:21.972Z,19.01
2017-05-07T09:07:47.565Z,19.01
2017-05-07T09:08:13.200Z,19.01
2017-05-07T09:08:38.760Z,18.92
2017-05-07T09:09:04.349Z,18.98
2017-05-07T09:09:30.036Z,18.95
2017-05-07T09:09:55.672Z,19.01
2017-05-07T09:10:21.244Z,18.99
2017-05-07T09:10:46.844Z,19.1
2017-05-07T09:11:12.480Z,18.97
2017-05-07T09:11:38.041Z,18.95
2017-05-07T09:12:03.639Z,18.97
2017-05-07T09:12:29.235Z,18.95
2017-05-07T09:12:54.815Z,19.05
2017-05-07T09:13:20.391Z,18.99
2017-05-07T09:13:46.005Z,18.99
2017-05-07T09:14:11.572Z,19.08
2017-05-07T09:14:37.138Z,19.02
2017-05-07T09:15:02.729Z,18.94
2017-05-07T09:15:28.298Z,18.94
2017-05-07T09:15:53.865Z,18.99
2017-05-07T09:16:19.430Z,18.95
2017-05-07T09:16:44.995Z,18.92
2017-05-07T09:17:10.748Z,18.98
2017-05-07T09:17:36.307Z,18.95
2017-05-07T09:18:01.851Z,19.01
2017-05-07T09:18:27.421Z,18.95
2017-05-07T09:18:52.988Z,19.05
2017-05-07T09:19:18.561Z,18.99
2017-05-07T09:20:27.392Z,19.01
2017-05-07T09:20:52.949Z,18.95
2017-05-07T09:21:18.562Z,19.01
2017-05-07T09:21:44.147Z,18.97
2017-05-07T09:22:09.823Z,19.01
2017-05-07T09:22:35.395Z,19.05
2017-05-07T09:23:00.995Z,18.99
2017-05-07T09:23:26.549Z,18.92
2017-05-07T09:23:52.121Z,18.94
2017-05-07T09:24:17.680Z,18.98
2017-05-07T09:24:43.266Z,19.05
2017-05-07T09:25:08.817Z,18.99
2017-05-07T09:25:34.394Z,18.97
2017-05-07T09:25:59.956Z,19.01
2017-05-07T09:26:26.747Z,18.95
2017-05-07T09:26:52.292Z,19.05
2017-05-07T09:27:17.862Z,18.98
2017-05-07T09:27:43.427Z,19.01
2017-05-07T09:28:08.995Z,19.05
2017-05-07T09:28:34.560Z,19.05
2017-05-07T09:29:00.133Z,19.01
2017-05-07T09:29:25.708Z,18.98
2017-05-07T09:29:51.333Z,18.97
2017-05-07T09:30:16.886Z,18.99
2017-05-07T09:30:42.526Z,18.98
2017-05-07T09:31:08.145Z,18.97
2017-05-07T09:31:33.736Z,19.01
2017-05-07T09:31:59.331Z,18.97
2017-05-07T09:32:24.990Z,18.98
2017-05-07T09:32:50.573Z,18.95
2017-05-07T09:33:16.161Z,18.92
2017-05-07T09:33:41.712Z,19.01
2017-05-07T09:34:07.378Z,18.92
2017-05-07T09:34:32.982Z,19.01
2017-05-07T09:34:58.543Z,18.95
2017-05-07T09:35:24.116Z,18.95
2017-05-07T09:35:49.707Z,18.92
2017-05-07T09:36:15.370Z,18.95
2017-05-07T09:36:40.932Z,18.99
2017-05-07T09:37:06.538Z,18.9
2017-05-07T09:37:32.098Z,18.97
2017-05-07T09:37:57.765Z,19.01
2017-05-07T09:38:23.396Z,18.97
2017-05-07T09:38:48.943Z,18.94
2017-05-07T09:39:14.589Z,18.95
2017-05-07T09:39:40.151Z,18.99
2017-05-07T09:40:05.699Z,18.92
2017-05-07T09:40:31.260Z,18.97
2017-05-07T09:41:19.481Z,19.01
2017-05-07T09:41:45.075Z,18.94
2017-05-07T09:42:10.647Z,18.98
2017-05-07T09:42:36.208Z,18.97
2017-05-07T09:43:01.825Z,18.99